createdAt,value
2019-04-30T00:00:22.207Z,1012.38
2019-04-30T00:01:22.175Z,1012.37
2019-04-30T00:02:22.166Z,1012.39
2019-04-30T00:03:22.158Z,1012.37
2019-04-30T00:04:22.145Z,1012.35
2019-04-30T00:05:22.134Z,1012.39
2019-04-30T00:06:22.153Z,1012.36
2019-04-30T00:07:22.112Z,1012.39
2019-04-30T00:08:22.101Z,1012.31
2019-04-30T00:09:22.095Z,1012.33
2019-04-30T00:10:22.076Z,1012.31
2019-04-30T00:11:22.111Z,1012.33
2019-04-30T00:12:22.059Z,1012.32
2019-04-30T00:13:22.054Z,1012.28
2019-04-30T00:14:22.034Z,1012.25
2019-04-30T00:15:22.024Z,1012.29
2019-04-30T00:16:22.019Z,1012.33
2019-04-30T00:17:22.013Z,1012.25
2019-04-30T00:18:21.999Z,1012.31
2019-04-30T00:19:21.979Z,1012.23
2019-04-30T00:20:21.980Z,1012.28
2019-04-30T00:21:21.957Z,1012.19
2019-04-30T00:22:33.264Z,1012.20
2019-04-30T00:23:29.317Z,1012.23
2019-04-30T00:24:22.933Z,1012.23
2019-04-30T00:25:24.937Z,1012.18
2019-04-30T00:26:22.905Z,1012.14
2019-04-30T00:27:28.331Z,1012.13
2019-04-30T00:28:22.899Z,1012.13
2019-04-30T00:29:27.080Z,1012.15
2019-04-30T00:30:22.865Z,1012.12
2019-04-30T00:31:23.734Z,1012.12
2019-04-30T00:32:22.843Z,1012.12
2019-04-30T00:33:23.146Z,1012.09
2019-04-30T00:34:21.822Z,1012.07
2019-04-30T00:35:21.809Z,1012.07
2019-04-30T00:36:21.801Z,1012.10
2019-04-30T00:37:21.789Z,1012.07
2019-04-30T00:38:21.813Z,1012.09
2019-04-30T00:39:21.773Z,1012.02
2019-04-30T00:40:26.085Z,1012.06
2019-04-30T00:41:22.748Z,1012.06
2019-04-30T00:42:24.160Z,1012.05
2019-04-30T00:43:22.740Z,1012.02
2019-04-30T00:44:24.775Z,1012.01
2019-04-30T00:45:22.705Z,1012.01
2019-04-30T00:46:25.038Z,1012.03
2019-04-30T00:47:22.683Z,1012.07
2019-04-30T00:48:29.512Z,1012.04
2019-04-30T00:49:24.135Z,1012.09
2019-04-30T00:50:21.656Z,1012.09
2019-04-30T00:51:21.666Z,1012.07
2019-04-30T00:52:21.636Z,1012.08
2019-04-30T00:53:21.623Z,1012.07
2019-04-30T00:54:22.559Z,1012.09
2019-04-30T00:55:22.610Z,1012.11
2019-04-30T00:56:26.468Z,1012.06
2019-04-30T00:57:22.579Z,1012.08
2019-04-30T00:58:28.824Z,1012.08
2019-04-30T00:59:22.585Z,1012.05
2019-04-30T01:00:28.035Z,1012.06
2019-04-30T01:01:22.527Z,1012.02
2019-04-30T01:02:29.182Z,1012.09
2019-04-30T01:03:22.506Z,1012.07
2019-04-30T01:04:24.556Z,1012.03
2019-04-30T01:05:22.503Z,1011.99
2019-04-30T01:06:24.659Z,1012.10
2019-04-30T01:07:22.468Z,1012.10
2019-04-30T01:08:27.262Z,1012.03
2019-04-30T01:09:22.444Z,1012.08
2019-04-30T01:10:24.676Z,1012.04
2019-04-30T01:11:22.459Z,1012.07
2019-04-30T01:12:27.658Z,1012.01
2019-04-30T01:13:22.403Z,1012.07
2019-04-30T01:14:23.266Z,1012.06
2019-04-30T01:15:22.377Z,1012.09
2019-04-30T01:16:23.621Z,1011.98
2019-04-30T01:17:22.368Z,1012.06
2019-04-30T01:18:23.554Z,1012.07
2019-04-30T01:19:30.142Z,1012.08
2019-04-30T01:20:24.181Z,1012.04
2019-04-30T01:21:22.312Z,1012.01
2019-04-30T01:22:28.231Z,1012.02
2019-04-30T01:23:22.291Z,1011.99
2019-04-30T01:24:23.441Z,1012.01
2019-04-30T01:25:22.282Z,1011.98
2019-04-30T01:26:22.891Z,1012.04
2019-04-30T01:27:21.256Z,1012.05
2019-04-30T01:28:24.233Z,1012.05
2019-04-30T01:29:21.236Z,1012.03
2019-04-30T01:30:22.824Z,1012.02
2019-04-30T01:31:21.230Z,1012.00
2019-04-30T01:32:21.339Z,1011.91
2019-04-30T01:33:21.185Z,1011.99
2019-04-30T01:34:21.178Z,1011.98
2019-04-30T01:35:23.964Z,1011.96
2019-04-30T01:36:22.188Z,1011.93
2019-04-30T01:37:28.418Z,1011.95
2019-04-30T01:38:22.133Z,1011.90
2019-04-30T01:39:23.645Z,1011.90
2019-04-30T01:40:22.116Z,1011.94
2019-04-30T01:41:27.358Z,1011.93
2019-04-30T01:42:22.104Z,1011.92
2019-04-30T01:43:30.498Z,1011.97
2019-04-30T01:44:22.067Z,1011.96
2019-04-30T01:45:23.022Z,1011.94
2019-04-30T01:46:22.047Z,1011.98
2019-04-30T01:47:27.482Z,1011.94
2019-04-30T01:48:22.027Z,1011.93
2019-04-30T01:49:25.789Z,1011.99
2019-04-30T01:50:22.007Z,1011.96
2019-04-30T01:51:21.857Z,1011.97
2019-04-30T01:52:20.985Z,1011.93
2019-04-30T01:53:20.983Z,1011.92
2019-04-30T01:54:24.203Z,1011.95
2019-04-30T01:55:20.948Z,1011.94
2019-04-30T01:56:20.933Z,1011.97
2019-04-30T01:57:20.922Z,1011.93
2019-04-30T01:58:20.920Z,1012.01
2019-04-30T01:59:20.915Z,1011.98
2019-04-30T02:00:20.894Z,1011.97
2019-04-30T02:01:20.887Z,1011.98
2019-04-30T02:02:20.876Z,1012.01
2019-04-30T02:03:20.864Z,1012.08
2019-04-30T02:04:20.865Z,1011.97
2019-04-30T02:05:20.841Z,1012.07
2019-04-30T02:06:20.833Z,1012.01
2019-04-30T02:07:20.825Z,1012.02
2019-04-30T02:08:20.803Z,1012.04
2019-04-30T02:09:20.815Z,1012.00
2019-04-30T02:10:20.787Z,1012.03
2019-04-30T02:11:20.775Z,1011.99
2019-04-30T02:12:21.882Z,1011.97
2019-04-30T02:13:20.751Z,1012.04
2019-04-30T02:14:20.741Z,1012.08
2019-04-30T02:15:20.738Z,1012.05
2019-04-30T02:16:21.136Z,1011.99
2019-04-30T02:17:20.710Z,1012.03
2019-04-30T02:18:20.695Z,1012.05
2019-04-30T02:19:20.683Z,1012.00
2019-04-30T02:20:20.690Z,1012.01
2019-04-30T02:21:20.666Z,1012.03
2019-04-30T02:22:20.663Z,1012.06
2019-04-30T02:23:20.649Z,1012.04
2019-04-30T02:24:20.638Z,1012.06
2019-04-30T02:25:20.618Z,1012.04
2019-04-30T02:26:20.622Z,1011.98
2019-04-30T02:27:21.679Z,1012.03
2019-04-30T02:28:20.585Z,1012.06
2019-04-30T02:29:20.574Z,1012.01
2019-04-30T02:30:21.085Z,1012.05
2019-04-30T02:31:22.956Z,1012.07
2019-04-30T02:32:20.967Z,1012.01
2019-04-30T02:33:20.534Z,1012.12
2019-04-30T02:34:22.249Z,1012.04
2019-04-30T02:35:20.517Z,1012.06
2019-04-30T02:36:20.544Z,1012.05
2019-04-30T02:37:21.139Z,1012.06
2019-04-30T02:38:20.536Z,1012.05
2019-04-30T02:39:20.526Z,1012.04
2019-04-30T02:40:20.471Z,1012.04
2019-04-30T02:41:20.449Z,1012.09
2019-04-30T02:42:20.547Z,1012.12
2019-04-30T02:43:20.515Z,1012.15
2019-04-30T02:44:20.411Z,1012.11
2019-04-30T02:45:20.408Z,1012.10
2019-04-30T02:46:20.397Z,1012.15
2019-04-30T02:47:20.493Z,1012.13
2019-04-30T02:48:20.378Z,1012.09
2019-04-30T02:49:20.697Z,1012.15
2019-04-30T02:50:22.584Z,1012.11
2019-04-30T02:51:22.862Z,1012.13
2019-04-30T02:52:20.325Z,1012.08
2019-04-30T02:53:20.330Z,1012.10
2019-04-30T02:54:24.154Z,1012.14
2019-04-30T02:55:20.292Z,1012.16
2019-04-30T02:56:20.641Z,1012.13
2019-04-30T02:57:23.269Z,1012.15
2019-04-30T02:58:21.123Z,1012.14
2019-04-30T02:59:20.444Z,1012.15
2019-04-30T03:00:20.982Z,1012.11
2019-04-30T03:01:20.597Z,1012.09
2019-04-30T03:02:20.218Z,1012.10
2019-04-30T03:03:20.439Z,1012.11
2019-04-30T03:04:20.205Z,1012.13
2019-04-30T03:05:20.478Z,1012.16
2019-04-30T03:06:23.566Z,1012.13
2019-04-30T03:07:20.165Z,1012.18
2019-04-30T03:08:20.153Z,1012.18
2019-04-30T03:09:20.510Z,1012.13
2019-04-30T03:10:20.223Z,1012.17
2019-04-30T03:11:20.925Z,1012.18
2019-04-30T03:12:20.448Z,1012.19
2019-04-30T03:13:20.232Z,1012.20
2019-04-30T03:14:20.786Z,1012.28
2019-04-30T03:15:22.878Z,1012.22
2019-04-30T03:16:20.804Z,1012.28
2019-04-30T03:17:20.965Z,1012.28
2019-04-30T03:18:22.993Z,1012.27
2019-04-30T03:19:20.038Z,1012.24
2019-04-30T03:20:30.964Z,1012.25
2019-04-30T03:21:21.049Z,1012.26
2019-04-30T03:22:20.421Z,1012.28
2019-04-30T03:23:20.782Z,1012.20
2019-04-30T03:24:20.344Z,1012.27
2019-04-30T03:25:19.969Z,1012.19
2019-04-30T03:26:20.150Z,1012.30
2019-04-30T03:27:21.070Z,1012.28
2019-04-30T03:28:20.359Z,1012.28
2019-04-30T03:29:23.776Z,1012.27
2019-04-30T03:30:21.737Z,1012.26
2019-04-30T03:31:22.468Z,1012.30
2019-04-30T03:32:22.369Z,1012.23
2019-04-30T03:33:22.879Z,1012.26
2019-04-30T03:34:25.639Z,1012.29
2019-04-30T03:35:22.816Z,1012.33
2019-04-30T03:36:21.685Z,1012.26
2019-04-30T03:37:19.934Z,1012.23
2019-04-30T03:38:20.392Z,1012.26
2019-04-30T03:39:20.069Z,1012.27
2019-04-30T03:40:20.286Z,1012.26
2019-04-30T03:41:20.074Z,1012.34
2019-04-30T03:42:20.091Z,1012.35
2019-04-30T03:43:20.190Z,1012.34
2019-04-30T03:44:25.462Z,1012.31
2019-04-30T03:45:20.751Z,1012.30
2019-04-30T03:46:19.737Z,1012.29
2019-04-30T03:47:20.356Z,1012.33
2019-04-30T03:48:20.166Z,1012.37
2019-04-30T03:49:20.433Z,1012.36
2019-04-30T03:50:19.992Z,1012.36
2019-04-30T03:51:20.009Z,1012.37
2019-04-30T03:52:20.014Z,1012.42
2019-04-30T03:53:20.326Z,1012.40
2019-04-30T03:54:19.700Z,1012.27
2019-04-30T03:55:20.562Z,1012.34
2019-04-30T03:56:22.783Z,1012.36
2019-04-30T03:57:20.417Z,1012.35
2019-04-30T03:58:21.317Z,1012.37
2019-04-30T03:59:20.056Z,1012.43
2019-04-30T04:00:20.380Z,1012.40
2019-04-30T04:01:19.826Z,1012.38
2019-04-30T04:02:20.802Z,1012.38
2019-04-30T04:03:20.073Z,1012.48
2019-04-30T04:04:20.161Z,1012.38
2019-04-30T04:05:20.203Z,1012.43
2019-04-30T04:06:21.538Z,1012.47
2019-04-30T04:07:20.276Z,1012.50
2019-04-30T04:08:19.694Z,1012.52
2019-04-30T04:09:22.160Z,1012.46
2019-04-30T04:10:19.704Z,1012.52
2019-04-30T04:11:19.993Z,1012.51
2019-04-30T04:12:20.449Z,1012.54
2019-04-30T04:13:30.084Z,1012.51
2019-04-30T04:14:19.874Z,1012.50
2019-04-30T04:15:20.043Z,1012.54
2019-04-30T04:16:19.629Z,1012.49
2019-04-30T04:17:20.208Z,1012.53
2019-04-30T04:18:20.224Z,1012.53
2019-04-30T04:19:19.725Z,1012.56
2019-04-30T04:20:20.363Z,1012.59
2019-04-30T04:21:20.704Z,1012.52
2019-04-30T04:22:20.679Z,1012.60
2019-04-30T04:23:19.487Z,1012.63
2019-04-30T04:24:20.359Z,1012.62
2019-04-30T04:25:20.509Z,1012.63
2019-04-30T04:26:20.247Z,1012.59
2019-04-30T04:27:19.756Z,1012.60
2019-04-30T04:28:20.296Z,1012.63
2019-04-30T04:29:19.767Z,1012.66
2019-04-30T04:30:20.399Z,1012.66
2019-04-30T04:31:19.543Z,1012.65
2019-04-30T04:32:23.559Z,1012.64
2019-04-30T04:33:19.940Z,1012.61
2019-04-30T04:34:19.841Z,1012.67
2019-04-30T04:35:19.936Z,1012.66
2019-04-30T04:36:20.000Z,1012.68
2019-04-30T04:37:20.217Z,1012.65
2019-04-30T04:38:20.386Z,1012.61
2019-04-30T04:39:20.215Z,1012.61
2019-04-30T04:40:21.126Z,1012.60
2019-04-30T04:41:19.793Z,1012.63
2019-04-30T04:42:19.693Z,1012.61
2019-04-30T04:43:20.204Z,1012.59
2019-04-30T04:44:20.443Z,1012.58
2019-04-30T04:45:19.901Z,1012.62
2019-04-30T04:46:20.499Z,1012.62
2019-04-30T04:47:20.237Z,1012.59
2019-04-30T04:48:19.802Z,1012.62
2019-04-30T04:49:20.595Z,1012.70
2019-04-30T04:50:20.052Z,1012.66
2019-04-30T04:51:33.409Z,1012.69
2019-04-30T04:52:21.662Z,1012.66
2019-04-30T04:53:19.624Z,1012.71
2019-04-30T04:54:20.190Z,1012.71
2019-04-30T04:55:21.772Z,1012.72
2019-04-30T04:56:19.230Z,1012.72
2019-04-30T04:57:22.362Z,1012.76
2019-04-30T04:58:21.479Z,1012.72
2019-04-30T04:59:20.143Z,1012.76
2019-04-30T05:00:19.463Z,1012.82
2019-04-30T05:01:20.348Z,1012.75
2019-04-30T05:02:19.531Z,1012.69
2019-04-30T05:03:20.139Z,1012.73
2019-04-30T05:04:20.018Z,1012.72
2019-04-30T05:05:19.508Z,1012.72
2019-04-30T05:06:21.727Z,1012.72
2019-04-30T05:07:19.654Z,1012.76
2019-04-30T05:08:18.842Z,1012.76
2019-04-30T05:09:19.483Z,1012.82
2019-04-30T05:10:19.321Z,1012.69
2019-04-30T05:11:19.305Z,1012.71
2019-04-30T05:12:18.803Z,1012.73
2019-04-30T05:13:19.212Z,1012.74
2019-04-30T05:14:19.126Z,1012.77
2019-04-30T05:15:19.450Z,1012.78
2019-04-30T05:16:19.186Z,1012.74
2019-04-30T05:17:19.516Z,1012.79
2019-04-30T05:18:19.148Z,1012.83
2019-04-30T05:19:18.816Z,1012.75
2019-04-30T05:20:19.518Z,1012.75
2019-04-30T05:21:18.940Z,1012.80
2019-04-30T05:22:19.107Z,1012.81
2019-04-30T05:23:21.550Z,1012.82
2019-04-30T05:24:19.022Z,1012.85
2019-04-30T05:25:18.885Z,1012.82
2019-04-30T05:26:19.073Z,1012.81
2019-04-30T05:27:19.801Z,1012.81
2019-04-30T05:28:19.009Z,1012.86
2019-04-30T05:29:19.042Z,1012.82
2019-04-30T05:30:19.903Z,1012.77
2019-04-30T05:31:21.004Z,1012.78
2019-04-30T05:32:19.667Z,1012.79
2019-04-30T05:33:18.749Z,1012.78
2019-04-30T05:34:18.979Z,1012.85
2019-04-30T05:35:18.680Z,1012.78
2019-04-30T05:36:19.175Z,1012.77
2019-04-30T05:37:18.779Z,1012.78
2019-04-30T05:38:18.973Z,1012.78
2019-04-30T05:39:18.917Z,1012.83
2019-04-30T05:40:18.982Z,1012.86
2019-04-30T05:41:19.289Z,1012.84
2019-04-30T05:42:18.568Z,1012.75
2019-04-30T05:43:19.181Z,1012.81
2019-04-30T05:44:18.618Z,1012.82
2019-04-30T05:45:19.209Z,1012.85
2019-04-30T05:46:19.600Z,1012.87
2019-04-30T05:47:19.549Z,1012.88
2019-04-30T05:48:18.667Z,1012.82
2019-04-30T05:49:18.874Z,1012.85
2019-04-30T05:50:19.949Z,1012.91
2019-04-30T05:51:19.396Z,1012.89
2019-04-30T05:52:19.961Z,1012.80
2019-04-30T05:53:19.049Z,1012.76
2019-04-30T05:54:19.009Z,1012.88
2019-04-30T05:55:19.775Z,1012.78
2019-04-30T05:56:19.302Z,1012.82
2019-04-30T05:57:19.726Z,1012.92
2019-04-30T05:58:19.708Z,1012.89
2019-04-30T05:59:20.451Z,1012.84
2019-04-30T06:00:19.078Z,1012.85
2019-04-30T06:01:19.617Z,1012.84
2019-04-30T06:02:19.439Z,1012.89
2019-04-30T06:03:27.558Z,1012.81
2019-04-30T06:04:19.438Z,1012.84
2019-04-30T06:05:18.766Z,1012.91
2019-04-30T06:06:19.336Z,1012.90
2019-04-30T06:07:18.986Z,1012.96
2019-04-30T06:08:19.246Z,1012.84
2019-04-30T06:09:30.735Z,1012.92
2019-04-30T06:10:19.377Z,1012.91
2019-04-30T06:11:19.268Z,1012.82
2019-04-30T06:12:20.107Z,1012.92
2019-04-30T06:13:19.045Z,1012.94
2019-04-30T06:14:18.585Z,1012.90
2019-04-30T06:15:19.381Z,1012.87
2019-04-30T06:16:18.840Z,1012.89
2019-04-30T06:17:19.721Z,1012.96
2019-04-30T06:18:18.556Z,1012.90
2019-04-30T06:19:19.579Z,1012.93
2019-04-30T06:20:20.848Z,1012.88
2019-04-30T06:21:21.328Z,1012.96
2019-04-30T06:22:19.078Z,1012.95
2019-04-30T06:23:19.478Z,1012.89
2019-04-30T06:24:18.821Z,1012.85
2019-04-30T06:25:28.303Z,1012.90
2019-04-30T06:26:20.760Z,1012.97
2019-04-30T06:27:19.120Z,1012.93
2019-04-30T06:28:19.595Z,1012.94
2019-04-30T06:29:18.976Z,1012.96
2019-04-30T06:30:19.847Z,1012.90
2019-04-30T06:31:22.311Z,1013.00
2019-04-30T06:32:18.923Z,1013.02
2019-04-30T06:33:19.262Z,1012.96
2019-04-30T06:34:19.720Z,1012.91
2019-04-30T06:35:19.345Z,1012.93
2019-04-30T06:36:19.081Z,1012.90
2019-04-30T06:37:19.468Z,1012.93
2019-04-30T06:38:18.516Z,1012.96
2019-04-30T06:39:18.769Z,1012.87
2019-04-30T06:40:19.590Z,1012.90
2019-04-30T06:41:19.686Z,1012.87
2019-04-30T06:42:19.467Z,1012.89
2019-04-30T06:43:19.081Z,1012.89
2019-04-30T06:44:19.470Z,1012.88
2019-04-30T06:45:19.148Z,1012.87
2019-04-30T06:46:18.723Z,1012.91
2019-04-30T06:47:20.042Z,1012.89
2019-04-30T06:48:19.904Z,1012.92
2019-04-30T06:49:19.419Z,1012.97
2019-04-30T06:50:19.418Z,1012.96
2019-04-30T06:51:18.949Z,1012.91
2019-04-30T06:52:21.471Z,1012.91
2019-04-30T06:53:19.223Z,1012.97
2019-04-30T06:54:19.149Z,1012.90
2019-04-30T06:55:19.242Z,1012.92
2019-04-30T06:56:18.913Z,1012.97
2019-04-30T06:57:19.383Z,1012.96
2019-04-30T06:58:20.263Z,1012.98
2019-04-30T06:59:17.639Z,1012.93
2019-04-30T07:00:19.431Z,1012.93
2019-04-30T07:01:19.074Z,1012.91
2019-04-30T07:02:19.507Z,1012.95
2019-04-30T07:03:19.143Z,1012.89
2019-04-30T07:04:19.374Z,1012.89
2019-04-30T07:05:18.611Z,1012.92
2019-04-30T07:06:27.488Z,1012.94
2019-04-30T07:07:22.689Z,1012.93
2019-04-30T07:08:19.034Z,1012.91
2019-04-30T07:09:17.512Z,1012.92
2019-04-30T07:10:18.656Z,1013.00
2019-04-30T07:11:19.391Z,1012.92
2019-04-30T07:12:27.050Z,1012.93
2019-04-30T07:13:18.831Z,1012.96
2019-04-30T07:14:19.446Z,1012.94
2019-04-30T07:15:19.532Z,1012.88
2019-04-30T07:16:19.001Z,1012.86
2019-04-30T07:17:19.433Z,1012.94
2019-04-30T07:18:18.983Z,1012.93
2019-04-30T07:19:29.985Z,1012.89
2019-04-30T07:20:19.116Z,1012.87
2019-04-30T07:21:19.555Z,1012.92
2019-04-30T07:22:20.700Z,1012.89
2019-04-30T07:23:18.892Z,1012.96
2019-04-30T07:24:20.789Z,1012.94
2019-04-30T07:25:19.336Z,1012.90
2019-04-30T07:26:19.788Z,1012.98
2019-04-30T07:27:23.776Z,1012.93
2019-04-30T07:28:19.080Z,1012.91
2019-04-30T07:29:19.500Z,1012.89
2019-04-30T07:30:19.106Z,1012.86
2019-04-30T07:31:19.242Z,1012.90
2019-04-30T07:32:19.674Z,1012.88
2019-04-30T07:33:20.775Z,1012.91
2019-04-30T07:34:19.461Z,1012.91
2019-04-30T07:35:19.334Z,1012.88
2019-04-30T07:36:19.376Z,1012.93
2019-04-30T07:37:24.009Z,1012.96
2019-04-30T07:38:19.326Z,1012.90
2019-04-30T07:39:19.086Z,1012.97
2019-04-30T07:40:19.042Z,1012.92
2019-04-30T07:41:18.882Z,1012.93
2019-04-30T07:42:19.057Z,1012.93
2019-04-30T07:43:18.879Z,1012.94
2019-04-30T07:44:32.613Z,1012.93
2019-04-30T07:45:19.458Z,1012.96
2019-04-30T07:46:17.114Z,1012.97
2019-04-30T07:47:19.546Z,1012.90
2019-04-30T07:48:21.119Z,1012.97
2019-04-30T07:49:20.566Z,1012.93
2019-04-30T07:50:18.070Z,1012.99
2019-04-30T07:51:20.351Z,1012.94
2019-04-30T07:52:18.498Z,1012.90
2019-04-30T07:53:18.750Z,1013.01
2019-04-30T07:54:18.944Z,1012.93
2019-04-30T07:55:17.029Z,1012.99
2019-04-30T07:56:25.531Z,1013.01
2019-04-30T07:57:19.275Z,1012.98
2019-04-30T07:58:20.219Z,1012.97
2019-04-30T07:59:16.974Z,1013.03
2019-04-30T08:00:16.971Z,1012.94
2019-04-30T08:01:19.411Z,1012.99
2019-04-30T08:02:16.938Z,1012.96
2019-04-30T08:03:19.955Z,1012.96
2019-04-30T08:04:18.421Z,1012.96
2019-04-30T08:05:16.900Z,1012.96
2019-04-30T08:06:18.936Z,1012.93
2019-04-30T08:07:16.937Z,1012.93
2019-04-30T08:08:24.288Z,1012.93
2019-04-30T08:09:19.598Z,1012.96
2019-04-30T08:10:18.729Z,1012.97
2019-04-30T08:11:23.808Z,1013.01
2019-04-30T08:12:25.657Z,1013.05
2019-04-30T08:13:20.602Z,1012.96
2019-04-30T08:14:18.464Z,1012.96
2019-04-30T08:15:16.794Z,1012.92
2019-04-30T08:16:18.682Z,1012.93
2019-04-30T08:17:18.737Z,1012.95
2019-04-30T08:18:18.492Z,1012.97
2019-04-30T08:19:16.743Z,1013.10
2019-04-30T08:20:16.738Z,1013.04
2019-04-30T08:21:18.847Z,1013.14
2019-04-30T08:22:16.734Z,1013.12
2019-04-30T08:23:32.818Z,1013.11
2019-04-30T08:24:19.365Z,1013.14
2019-04-30T08:25:18.983Z,1013.11
2019-04-30T08:26:18.713Z,1013.08
2019-04-30T08:27:16.664Z,1013.10
2019-04-30T08:28:18.616Z,1013.09
2019-04-30T08:29:16.642Z,1013.06
2019-04-30T08:30:23.850Z,1013.08
2019-04-30T08:31:19.381Z,1013.06
2019-04-30T08:32:16.610Z,1013.13
2019-04-30T08:33:16.609Z,1013.09
2019-04-30T08:34:16.588Z,1013.06
2019-04-30T08:35:16.584Z,1013.04
2019-04-30T08:36:16.557Z,1013.01
2019-04-30T08:37:18.173Z,1013.02
2019-04-30T08:38:16.540Z,1012.97
2019-04-30T08:39:16.526Z,1012.96
2019-04-30T08:40:16.527Z,1012.95
2019-04-30T08:41:16.502Z,1013.00
2019-04-30T08:42:28.980Z,1013.02
2019-04-30T08:43:17.481Z,1012.98
2019-04-30T08:44:16.479Z,1013.00
2019-04-30T08:45:16.470Z,1012.99
2019-04-30T08:46:16.454Z,1012.91
2019-04-30T08:47:18.787Z,1013.00
2019-04-30T08:48:16.426Z,1012.90
2019-04-30T08:49:18.381Z,1012.91
2019-04-30T08:50:16.537Z,1012.85
2019-04-30T08:51:16.512Z,1012.88
2019-04-30T08:52:16.390Z,1012.96
2019-04-30T08:53:26.774Z,1012.96
2019-04-30T08:54:19.514Z,1012.92
2019-04-30T08:55:17.106Z,1012.99
2019-04-30T08:56:16.337Z,1013.02
2019-04-30T08:57:16.334Z,1013.01
2019-04-30T08:58:16.321Z,1013.06
2019-04-30T08:59:16.306Z,1012.98
2019-04-30T09:00:16.332Z,1013.05
2019-04-30T09:01:16.697Z,1013.07
2019-04-30T09:02:16.667Z,1012.99
2019-04-30T09:03:16.270Z,1013.02
2019-04-30T09:04:16.257Z,1013.09
2019-04-30T09:05:16.245Z,1013.09
2019-04-30T09:06:16.242Z,1012.99
2019-04-30T09:07:16.232Z,1012.96
2019-04-30T09:08:16.215Z,1013.03
2019-04-30T09:09:16.208Z,1012.97
2019-04-30T09:10:16.189Z,1012.95
2019-04-30T09:11:24.651Z,1012.96
2019-04-30T09:12:17.164Z,1012.97
2019-04-30T09:13:16.158Z,1013.03
2019-04-30T09:14:16.178Z,1012.90
2019-04-30T09:15:16.141Z,1012.88
2019-04-30T09:16:16.129Z,1012.90
2019-04-30T09:17:16.129Z,1012.84
2019-04-30T09:18:16.107Z,1012.83
2019-04-30T09:19:16.107Z,1012.81
2019-04-30T09:20:16.090Z,1012.82
2019-04-30T09:21:16.079Z,1012.87
2019-04-30T09:22:16.065Z,1012.81
2019-04-30T09:23:16.092Z,1012.84
2019-04-30T09:24:16.040Z,1012.73
2019-04-30T09:25:16.033Z,1012.73
2019-04-30T09:26:16.029Z,1012.76
2019-04-30T09:27:16.007Z,1012.81
2019-04-30T09:28:15.998Z,1012.83
2019-04-30T09:29:15.988Z,1012.90
2019-04-30T09:30:15.971Z,1012.80
2019-04-30T09:31:15.969Z,1012.77
2019-04-30T09:32:15.964Z,1012.86
2019-04-30T09:33:15.946Z,1012.88
2019-04-30T09:34:20.289Z,1012.91
2019-04-30T09:35:15.917Z,1012.84
2019-04-30T09:36:15.910Z,1012.80
2019-04-30T09:37:15.900Z,1012.85
2019-04-30T09:38:15.907Z,1012.77
2019-04-30T09:39:15.875Z,1012.75
2019-04-30T09:40:18.530Z,1012.68
2019-04-30T09:41:16.858Z,1012.89
2019-04-30T09:42:15.843Z,1012.81
2019-04-30T09:43:15.854Z,1012.79
2019-04-30T09:44:15.824Z,1012.79
2019-04-30T09:45:15.811Z,1012.78
2019-04-30T09:46:24.521Z,1012.80
2019-04-30T09:47:16.793Z,1012.85
2019-04-30T09:48:15.776Z,1012.86
2019-04-30T09:49:15.765Z,1012.85
2019-04-30T09:50:15.764Z,1012.88
2019-04-30T09:51:16.236Z,1012.80
2019-04-30T09:52:15.738Z,1012.82
2019-04-30T09:53:15.812Z,1012.77
2019-04-30T09:54:16.119Z,1012.84
2019-04-30T09:55:15.704Z,1012.77
2019-04-30T09:56:15.694Z,1012.74
2019-04-30T09:57:15.680Z,1012.79
2019-04-30T09:58:18.234Z,1012.90
2019-04-30T09:59:16.671Z,1012.71
2019-04-30T10:00:15.655Z,1012.67
2019-04-30T10:01:15.639Z,1012.71
2019-04-30T10:02:15.630Z,1012.71
2019-04-30T10:03:16.273Z,1012.67
2019-04-30T10:04:16.071Z,1012.66
2019-04-30T10:05:17.227Z,1012.67
2019-04-30T10:06:15.591Z,1012.67
2019-04-30T10:07:15.581Z,1012.67
2019-04-30T10:08:15.563Z,1012.58
2019-04-30T10:09:15.554Z,1012.66
2019-04-30T10:10:15.560Z,1012.55
2019-04-30T10:11:15.561Z,1012.59
2019-04-30T10:12:15.536Z,1012.52
2019-04-30T10:13:15.517Z,1012.47
2019-04-30T10:14:23.675Z,1012.48
2019-04-30T10:15:15.491Z,1012.50
2019-04-30T10:16:15.483Z,1012.45
2019-04-30T10:17:15.491Z,1012.44
2019-04-30T10:18:15.474Z,1012.45
2019-04-30T10:19:15.452Z,1012.39
2019-04-30T10:20:15.443Z,1012.36
2019-04-30T10:21:15.444Z,1012.40
2019-04-30T10:22:15.416Z,1012.42
2019-04-30T10:23:15.434Z,1012.47
2019-04-30T10:24:15.890Z,1012.41
2019-04-30T10:25:15.390Z,1012.36
2019-04-30T10:26:15.398Z,1012.42
2019-04-30T10:27:15.382Z,1012.37
2019-04-30T10:28:15.365Z,1012.40
2019-04-30T10:29:15.344Z,1012.37
2019-04-30T10:30:15.339Z,1012.40
2019-04-30T10:31:15.324Z,1012.36
2019-04-30T10:32:15.362Z,1012.27
2019-04-30T10:33:15.354Z,1012.24
2019-04-30T10:34:15.294Z,1012.27
2019-04-30T10:35:15.290Z,1012.28
2019-04-30T10:36:15.276Z,1012.26
2019-04-30T10:37:15.264Z,1012.24
2019-04-30T10:38:15.267Z,1012.20
2019-04-30T10:39:15.282Z,1012.29
2019-04-30T10:40:15.270Z,1012.24
2019-04-30T10:41:15.230Z,1012.21
2019-04-30T10:42:15.215Z,1012.23
2019-04-30T10:43:15.200Z,1012.25
2019-04-30T10:44:15.194Z,1012.22
2019-04-30T10:45:15.189Z,1012.21
2019-04-30T10:46:15.191Z,1012.22
2019-04-30T10:47:15.163Z,1012.19
2019-04-30T10:48:15.151Z,1012.22
2019-04-30T10:49:15.148Z,1012.17
2019-04-30T10:50:15.174Z,1012.23
2019-04-30T10:51:15.114Z,1012.23
2019-04-30T10:52:15.109Z,1012.19
2019-04-30T10:53:15.091Z,1012.16
2019-04-30T10:54:25.517Z,1012.23
2019-04-30T10:55:16.085Z,1012.26
2019-04-30T10:56:15.091Z,1012.28
2019-04-30T10:57:15.058Z,1012.19
2019-04-30T10:58:15.467Z,1012.25
2019-04-30T10:59:15.044Z,1012.25
2019-04-30T11:00:15.033Z,1012.20
2019-04-30T11:01:15.017Z,1012.16
2019-04-30T11:02:15.008Z,1012.20
2019-04-30T11:03:20.045Z,1012.21
2019-04-30T11:04:15.999Z,1012.12
2019-04-30T11:05:14.979Z,1012.17
2019-04-30T11:06:15.023Z,1012.26
2019-04-30T11:07:14.992Z,1012.20
2019-04-30T11:08:14.954Z,1012.11
2019-04-30T11:09:14.956Z,1012.22
2019-04-30T11:10:14.915Z,1012.22
2019-04-30T11:11:14.904Z,1012.12
2019-04-30T11:12:14.894Z,1012.20
2019-04-30T11:13:14.888Z,1012.16
2019-04-30T11:14:14.890Z,1012.19
2019-04-30T11:15:14.866Z,1012.20
2019-04-30T11:16:15.592Z,1012.16
2019-04-30T11:17:15.062Z,1012.16
2019-04-30T11:18:15.037Z,1012.11
2019-04-30T11:19:14.991Z,1012.06
2019-04-30T11:20:15.016Z,1012.10
2019-04-30T11:21:14.982Z,1012.14
2019-04-30T11:22:15.010Z,1012.16
2019-04-30T11:23:15.338Z,1012.16
2019-04-30T11:24:15.000Z,1012.13
2019-04-30T11:25:14.935Z,1012.13
2019-04-30T11:26:15.368Z,1012.11
2019-04-30T11:27:15.418Z,1012.09
2019-04-30T11:28:15.255Z,1012.18
2019-04-30T11:29:14.929Z,1012.14
2019-04-30T11:30:21.361Z,1012.22
2019-04-30T11:31:15.967Z,1012.13
2019-04-30T11:32:14.908Z,1012.17
2019-04-30T11:33:14.929Z,1012.10
2019-04-30T11:34:14.674Z,1012.12
2019-04-30T11:35:14.661Z,1012.19
2019-04-30T11:36:14.686Z,1012.22
2019-04-30T11:37:14.640Z,1012.16
2019-04-30T11:38:14.627Z,1012.13
2019-04-30T11:39:14.613Z,1012.15
2019-04-30T11:40:14.607Z,1012.12
2019-04-30T11:41:14.600Z,1012.11
2019-04-30T11:42:14.650Z,1012.12
2019-04-30T11:43:14.575Z,1012.16
2019-04-30T11:44:27.837Z,1012.13
2019-04-30T11:45:15.557Z,1012.14
2019-04-30T11:46:14.545Z,1012.10
2019-04-30T11:47:14.550Z,1012.07
2019-04-30T11:48:14.526Z,1012.03
2019-04-30T11:49:14.517Z,1012.02
2019-04-30T11:50:14.498Z,1012.10
2019-04-30T11:51:14.514Z,1012.15
2019-04-30T11:52:14.482Z,1012.09
2019-04-30T11:53:25.420Z,1012.07
2019-04-30T11:54:15.457Z,1011.97
2019-04-30T11:55:14.452Z,1011.99
2019-04-30T11:56:14.440Z,1011.96
2019-04-30T11:57:14.456Z,1011.91
2019-04-30T11:58:21.406Z,1011.93
2019-04-30T11:59:15.419Z,1011.93
2019-04-30T12:00:14.401Z,1011.91
2019-04-30T12:01:14.394Z,1011.98
2019-04-30T12:02:14.377Z,1012.06
2019-04-30T12:03:14.381Z,1011.94
2019-04-30T12:04:14.351Z,1012.00
2019-04-30T12:05:14.371Z,1011.97